sensor_id;sensor_type;location;lat;lon;timestamp;pressure;altitude;pressure_sealevel;temperature;humidity
46291;BME280;32023;44.444;26.006;2023-04-21T00:01:42;99930.13;;;10.94;94.77
46291;BME280;32023;44.444;26.006;2023-04-21T00:04:21;99929.00;;;10.90;95.33
46291;BME280;32023;44.444;26.006;2023-04-21T00:06:47;99936.72;;;10.93;96.02
46291;BME280;32023;44.444;26.006;2023-04-21T00:09:16;99939.75;;;10.96;95.87
46291;BME280;32023;44.444;26.006;2023-04-21T00:11:45;99936.72;;;11.03;96.08
46291;BME280;32023;44.444;26.006;2023-04-21T00:14:12;99934.56;;;11.10;95.87
46291;BME280;32023;44.444;26.006;2023-04-21T00:16:38;99932.34;;;11.12;95.95
46291;BME280;32023;44.444;26.006;2023-04-21T00:19:08;99926.28;;;11.15;95.79
46291;BME280;32023;44.444;26.006;2023-04-21T00:21:43;99922.44;;;11.21;95.63
46291;BME280;32023;44.444;26.006;2023-04-21T00:24:09;99925.75;;;11.28;95.19
46291;BME280;32023;44.444;26.006;2023-04-21T00:26:37;99918.28;;;11.34;95.13
46291;BME280;32023;44.444;26.006;2023-04-21T00:29:06;99915.84;;;11.32;94.61
46291;BME280;32023;44.444;26.006;2023-04-21T00:31:32;99913.91;;;11.28;94.54
46291;BME280;32023;44.444;26.006;2023-04-21T00:34:03;99910.56;;;11.26;94.16
46291;BME280;32023;44.444;26.006;2023-04-21T00:36:30;99916.91;;;11.26;94.43
46291;BME280;32023;44.444;26.006;2023-04-21T00:39:00;99904.25;;;11.25;94.71
46291;BME280;32023;44.444;26.006;2023-04-21T00:41:32;99901.47;;;11.30;94.77
46291;BME280;32023;44.444;26.006;2023-04-21T00:44:04;99890.19;;;11.27;94.32
46291;BME280;32023;44.444;26.006;2023-04-21T00:46:31;99897.91;;;11.25;94.23
46291;BME280;32023;44.444;26.006;2023-04-21T00:49:02;99889.06;;;11.23;94.28
46291;BME280;32023;44.444;26.006;2023-04-21T00:51:28;99885.22;;;11.19;94.59
46291;BME280;32023;44.444;26.006;2023-04-21T00:54:13;99884.94;;;11.15;94.57
46291;BME280;32023;44.444;26.006;2023-04-21T00:56:48;99872.81;;;11.11;94.58
46291;BME280;32023;44.444;26.006;2023-04-21T00:59:14;99866.75;;;11.04;95.31
46291;BME280;32023;44.444;26.006;2023-04-21T01:01:41;99877.78;;;10.99;95.35
46291;BME280;32023;44.444;26.006;2023-04-21T01:04:19;99875.31;;;10.97;95.49
46291;BME280;32023;44.444;26.006;2023-04-21T01:07:04;99865.94;;;10.98;95.56
46291;BME280;32023;44.444;26.006;2023-04-21T01:09:31;99862.06;;;10.99;95.75
46291;BME280;32023;44.444;26.006;2023-04-21T01:12:09;99859.03;;;10.96;95.64
46291;BME280;32023;44.444;26.006;2023-04-21T01:14:37;99862.91;;;10.95;95.66
46291;BME280;32023;44.444;26.006;2023-04-21T01:17:06;99856.81;;;10.88;95.80
46291;BME280;32023;44.444;26.006;2023-04-21T01:19:37;99861.22;;;10.89;95.76
46291;BME280;32023;44.444;26.006;2023-04-21T01:22:08;99867.84;;;10.88;96.19
46291;BME280;32023;44.444;26.006;2023-04-21T01:24:42;99859.56;;;10.88;96.00
46291;BME280;32023;44.444;26.006;2023-04-21T01:27:15;99859.06;;;10.91;95.82
46291;BME280;32023;44.444;26.006;2023-04-21T01:29:44;99856.00;;;10.92;95.43
46291;BME280;32023;44.444;26.006;2023-04-21T01:32:19;99856.84;;;10.93;95.47
46291;BME280;32023;44.444;26.006;2023-04-21T01:34:46;99859.59;;;10.93;95.20
46291;BME280;32023;44.444;26.006;2023-04-21T01:37:16;99856.28;;;10.91;95.31
46291;BME280;32023;44.444;26.006;2023-04-21T01:39:53;99859.88;;;10.91;94.95
46291;BME280;32023;44.444;26.006;2023-04-21T01:42:23;99862.31;;;10.88;95.23
46291;BME280;32023;44.444;26.006;2023-04-21T01:44:51;99860.13;;;10.85;95.23
46291;BME280;32023;44.444;26.006;2023-04-21T01:47:19;99853.00;;;10.84;94.81
46291;BME280;32023;44.444;26.006;2023-04-21T01:49:47;99853.50;;;10.81;94.81
46291;BME280;32023;44.444;26.006;2023-04-21T01:52:13;99849.91;;;10.70;94.91
46291;BME280;32023;44.444;26.006;2023-04-21T01:54:39;99853.22;;;10.67;95.38
46291;BME280;32023;44.444;26.006;2023-04-21T01:57:07;99852.41;;;10.67;94.73
46291;BME280;32023;44.444;26.006;2023-04-21T01:59:46;99853.50;;;10.66;94.88
46291;BME280;32023;44.444;26.006;2023-04-21T02:02:13;99854.59;;;10.65;94.98
46291;BME280;32023;44.444;26.006;2023-04-21T02:04:47;99854.59;;;10.65;94.88
46291;BME280;32023;44.444;26.006;2023-04-21T02:07:26;99852.38;;;10.61;94.98
46291;BME280;32023;44.444;26.006;2023-04-21T02:09:59;99858.44;;;10.58;94.81
46291;BME280;32023;44.444;26.006;2023-04-21T02:12:36;99868.34;;;10.54;94.78
46291;BME280;32023;44.444;26.006;2023-04-21T02:15:03;99858.97;;;10.50;95.14
46291;BME280;32023;44.444;26.006;2023-04-21T02:17:35;99866.38;;;10.50;94.53
46291;BME280;32023;44.444;26.006;2023-04-21T02:20:02;99866.69;;;10.48;94.48
46291;BME280;32023;44.444;26.006;2023-04-21T02:22:31;99863.06;;;10.43;94.38
46291;BME280;32023;44.444;26.006;2023-04-21T02:24:59;99861.94;;;10.39;94.67
46291;BME280;32023;44.444;26.006;2023-04-21T02:27:25;99865.53;;;10.34;94.10
46291;BME280;32023;44.444;26.006;2023-04-21T02:29:52;99856.72;;;10.32;93.97
46291;BME280;32023;44.444;26.006;2023-04-21T02:32:50;99857.81;;;10.26;94.22
46291;BME280;32023;44.444;26.006;2023-04-21T02:35:19;99859.16;;;10.24;94.46
46291;BME280;32023;44.444;26.006;2023-04-21T02:37:45;99851.72;;;10.19;93.91
46291;BME280;32023;44.444;26.006;2023-04-21T02:40:12;99855.28;;;10.14;94.25
46291;BME280;32023;44.444;26.006;2023-04-21T02:42:38;99848.38;;;10.12;94.10
46291;BME280;32023;44.444;26.006;2023-04-21T02:45:05;99856.88;;;10.10;94.25
46291;BME280;32023;44.444;26.006;2023-04-21T02:47:31;99853.84;;;10.07;94.54
46291;BME280;32023;44.444;26.006;2023-04-21T02:49:58;99854.09;;;10.05;94.30
46291;BME280;32023;44.444;26.006;2023-04-21T02:52:24;99862.06;;;10.02;94.18
46291;BME280;32023;44.444;26.006;2023-04-21T02:54:51;99863.16;;;10.01;94.28
46291;BME280;32023;44.444;26.006;2023-04-21T02:57:18;99853.28;;;10.00;94.19
46291;BME280;32023;44.444;26.006;2023-04-21T02:59:44;99851.88;;;9.97;94.11
46291;BME280;32023;44.444;26.006;2023-04-21T03:02:28;99854.63;;;9.92;93.88
46291;BME280;32023;44.444;26.006;2023-04-21T03:04:58;99859.53;;;9.90;94.23
46291;BME280;32023;44.444;26.006;2023-04-21T03:07:24;99869.41;;;9.86;94.30
46291;BME280;32023;44.444;26.006;2023-04-21T03:10:13;99867.50;;;9.82;94.08
46291;BME280;32023;44.444;26.006;2023-04-21T03:12:39;99875.16;;;9.80;94.43
46291;BME280;32023;44.444;26.006;2023-04-21T03:15:07;99873.50;;;9.79;94.34
46291;BME280;32023;44.444;26.006;2023-04-21T03:17:33;99879.84;;;9.79;94.89
46291;BME280;32023;44.444;26.006;2023-04-21T03:20:00;99883.41;;;9.80;94.60
46291;BME280;32023;44.444;26.006;2023-04-21T03:22:29;99884.00;;;9.82;94.89
46291;BME280;32023;44.444;26.006;2023-04-21T03:25:05;99886.75;;;9.82;94.76
46291;BME280;32023;44.444;26.006;2023-04-21T03:27:33;99888.13;;;9.84;94.68
46291;BME280;32023;44.444;26.006;2023-04-21T03:30:18;99880.13;;;9.83;94.89
46291;BME280;32023;44.444;26.006;2023-04-21T03:32:44;99875.47;;;9.83;94.43
46291;BME280;32023;44.444;26.006;2023-04-21T03:35:19;99879.03;;;9.84;94.93
46291;BME280;32023;44.444;26.006;2023-04-21T03:37:46;99883.16;;;9.86;94.68
46291;BME280;32023;44.444;26.006;2023-04-21T03:40:24;99888.97;;;9.90;95.22
46291;BME280;32023;44.444;26.006;2023-04-21T03:43:00;99881.81;;;9.89;94.65
46291;BME280;32023;44.444;26.006;2023-04-21T03:45:27;99886.22;;;9.90;95.27
46291;BME280;32023;44.444;26.006;2023-04-21T03:47:56;99888.44;;;9.93;95.09
46291;BME280;32023;44.444;26.006;2023-04-21T03:50:25;99887.34;;;9.94;95.46
46291;BME280;32023;44.444;26.006;2023-04-21T03:52:51;99895.88;;;9.97;95.82
46291;BME280;32023;44.444;26.006;2023-04-21T03:55:18;99886.28;;;10.00;95.77
46291;BME280;32023;44.444;26.006;2023-04-21T03:57:47;99900.59;;;10.02;95.76
46291;BME280;32023;44.444;26.006;2023-04-21T04:00:16;99890.69;;;10.06;95.69
46291;BME280;32023;44.444;26.006;2023-04-21T04:02:42;99896.50;;;10.09;95.57
46291;BME280;32023;44.444;26.006;2023-04-21T04:05:11;99904.50;;;10.11;95.96
46291;BME280;32023;44.444;26.006;2023-04-21T04:07:37;99920.78;;;10.18;95.80
46291;BME280;32023;44.444;26.006;2023-04-21T04:10:04;99929.91;;;10.23;95.51
46291;BME280;32023;44.444;26.006;2023-04-21T04:12:33;99929.34;;;10.26;95.43
46291;BME280;32023;44.444;26.006;2023-04-21T04:15:07;99933.78;;;10.27;95.97
46291;BME280;32023;44.444;26.006;2023-04-21T04:18:01;99942.03;;;10.27;95.66
46291;BME280;32023;44.444;26.006;2023-04-21T04:20:28;99950.56;;;10.31;95.74
46291;BME280;32023;44.444;26.006;2023-04-21T04:23:15;99943.44;;;10.35;95.56
46291;BME280;32023;44.444;26.006;2023-04-21T04:29:36;99947.56;;;10.37;95.28
46291;BME280;32023;44.444;26.006;2023-04-21T04:32:11;99955.53;;;10.39;95.48
46291;BME280;32023;44.444;26.006;2023-04-21T04:34:41;99959.69;;;10.41;95.05
46291;BME280;32023;44.444;26.006;2023-04-21T04:37:23;99965.75;;;10.43;94.69
46291;BME280;32023;44.444;26.006;2023-04-21T04:39:58;99977.34;;;10.45;94.72
46291;BME280;32023;44.444;26.006;2023-04-21T04:42:27;99979.81;;;10.47;94.91
46291;BME280;32023;44.444;26.006;2023-04-21T04:44:56;99983.13;;;10.49;94.59
46291;BME280;32023;44.444;26.006;2023-04-21T04:47:26;99980.66;;;10.52;94.76
46291;BME280;32023;44.444;26.006;2023-04-21T04:49:55;99974.06;;;10.58;94.98
46291;BME280;32023;44.444;26.006;2023-04-21T04:52:21;99976.56;;;10.65;94.82
46291;BME280;32023;44.444;26.006;2023-04-21T04:54:48;99976.88;;;10.69;94.55
46291;BME280;32023;44.444;26.006;2023-04-21T04:57:19;99980.22;;;10.76;94.31
46291;BME280;32023;44.444;26.006;2023-04-21T04:59:53;99981.59;;;10.78;93.87
46291;BME280;32023;44.444;26.006;2023-04-21T05:02:26;99977.44;;;10.81;93.25
46291;BME280;32023;44.444;26.006;2023-04-21T05:04:57;99978.84;;;10.88;93.51
46291;BME280;32023;44.444;26.006;2023-04-21T05:07:23;99981.38;;;10.95;93.17
46291;BME280;32023;44.444;26.006;2023-04-21T05:09:52;99972.56;;;10.98;92.70
46291;BME280;32023;44.444;26.006;2023-04-21T05:12:22;99968.69;;;11.04;92.47
46291;BME280;32023;44.444;26.006;2023-04-21T05:14:51;99967.03;;;11.03;92.34
46291;BME280;32023;44.444;26.006;2023-04-21T05:17:17;99967.88;;;11.08;91.97
46291;BME280;32023;44.444;26.006;2023-04-21T05:19:43;99969.53;;;11.15;91.84
46291;BME280;32023;44.444;26.006;2023-04-21T05:22:11;99959.06;;;11.22;91.10
46291;BME280;32023;44.444;26.006;2023-04-21T05:24:39;99964.91;;;11.25;90.87
46291;BME280;32023;44.444;26.006;2023-04-21T05:27:08;99962.13;;;11.30;90.70
46291;BME280;32023;44.444;26.006;2023-04-21T05:29:39;99966.00;;;11.39;89.98
46291;BME280;32023;44.444;26.006;2023-04-21T05:32:08;99962.97;;;11.46;89.12
46291;BME280;32023;44.444;26.006;2023-04-21T05:34:37;99947.53;;;11.25;88.32
46291;BME280;32023;44.444;26.006;2023-04-21T05:37:03;99959.94;;;11.57;87.53
46291;BME280;32023;44.444;26.006;2023-04-21T05:39:32;99965.44;;;11.68;87.29
46291;BME280;32023;44.444;26.006;2023-04-21T05:42:02;99951.69;;;11.78;86.36
46291;BME280;32023;44.444;26.006;2023-04-21T05:44:35;99947.81;;;11.84;85.49
46291;BME280;32023;44.444;26.006;2023-04-21T05:47:05;99948.91;;;11.83;84.63
46291;BME280;32023;44.444;26.006;2023-04-21T05:49:35;99952.50;;;11.88;84.46
46291;BME280;32023;44.444;26.006;2023-04-21T05:52:12;99961.03;;;11.97;84.40
46291;BME280;32023;44.444;26.006;2023-04-21T05:54:58;99970.09;;;12.13;84.23
46291;BME280;32023;44.444;26.006;2023-04-21T05:57:31;99966.50;;;12.27;83.36
46291;BME280;32023;44.444;26.006;2023-04-21T05:59:58;99965.88;;;12.40;82.22
46291;BME280;32023;44.444;26.006;2023-04-21T06:02:24;99961.97;;;12.51;81.45
46291;BME280;32023;44.444;26.006;2023-04-21T06:04:51;99959.97;;;12.67;80.62
46291;BME280;32023;44.444;26.006;2023-04-21T06:07:30;99974.28;;;12.79;79.74
46291;BME280;32023;44.444;26.006;2023-04-21T06:09:57;99969.50;;;12.95;78.85
46291;BME280;32023;44.444;26.006;2023-04-21T06:12:43;99969.72;;;13.14;78.10
46291;BME280;32023;44.444;26.006;2023-04-21T06:15:09;99969.28;;;13.30;77.08
46291;BME280;32023;44.444;26.006;2023-04-21T06:17:38;99954.84;;;13.43;75.79
46291;BME280;32023;44.444;26.006;2023-04-21T06:20:08;99969.06;;;13.61;74.83
46291;BME280;32023;44.444;26.006;2023-04-21T06:22:44;99961.81;;;13.70;73.45
46291;BME280;32023;44.444;26.006;2023-04-21T06:25:26;99960.09;;;13.74;72.84
46291;BME280;32023;44.444;26.006;2023-04-21T06:27:53;99953.94;;;13.82;72.83
46291;BME280;32023;44.444;26.006;2023-04-21T06:30:23;99948.41;;;13.82;71.80
46291;BME280;32023;44.444;26.006;2023-04-21T06:32:49;99956.06;;;13.90;70.92
46291;BME280;32023;44.444;26.006;2023-04-21T06:35:16;99951.59;;;13.94;69.48
46291;BME280;32023;44.444;26.006;2023-04-21T06:37:43;99949.97;;;13.93;65.48
46291;BME280;32023;44.444;26.006;2023-04-21T06:40:13;99953.22;;;14.00;65.07
46291;BME280;32023;44.444;26.006;2023-04-21T06:42:41;99956.69;;;14.11;64.05
46291;BME280;32023;44.444;26.006;2023-04-21T06:45:23;99954.59;;;14.26;63.84
46291;BME280;32023;44.444;26.006;2023-04-21T06:47:50;99964.06;;;14.49;63.25
46291;BME280;32023;44.444;26.006;2023-04-21T06:50:25;99971.31;;;14.69;61.84
46291;BME280;32023;44.444;26.006;2023-04-21T06:52:55;99957.16;;;14.89;60.71
46291;BME280;32023;44.444;26.006;2023-04-21T06:55:24;99955.16;;;15.13;59.88
46291;BME280;32023;44.444;26.006;2023-04-21T06:58:18;99959.47;;;15.38;58.11
46291;BME280;32023;44.444;26.006;2023-04-21T07:00:50;99960.25;;;15.62;57.37
46291;BME280;32023;44.444;26.006;2023-04-21T07:03:16;99958.88;;;15.78;56.33
46291;BME280;32023;44.444;26.006;2023-04-21T07:05:45;99956.19;;;15.87;55.43
46291;BME280;32023;44.444;26.006;2023-04-21T07:08:12;99970.13;;;16.01;54.03
46291;BME280;32023;44.444;26.006;2023-04-21T07:10:38;99961.81;;;16.14;53.63
46291;BME280;32023;44.444;26.006;2023-04-21T07:13:08;99973.75;;;16.28;52.97
46291;BME280;32023;44.444;26.006;2023-04-21T07:15:38;99971.50;;;16.44;52.91
46291;BME280;32023;44.444;26.006;2023-04-21T07:18:04;99977.00;;;16.63;51.94
46291;BME280;32023;44.444;26.006;2023-04-21T07:20:39;99978.84;;;16.81;50.43
46291;BME280;32023;44.444;26.006;2023-04-21T07:23:06;99974.81;;;17.01;49.67
46291;BME280;32023;44.444;26.006;2023-04-21T07:25:32;99982.38;;;17.22;48.91
46291;BME280;32023;44.444;26.006;2023-04-21T07:27:59;99985.00;;;17.41;47.92
46291;BME280;32023;44.444;26.006;2023-04-21T07:30:28;99984.38;;;17.58;46.53
46291;BME280;32023;44.444;26.006;2023-04-21T07:32:58;99984.81;;;17.73;45.55
46291;BME280;32023;44.444;26.006;2023-04-21T07:35:29;99976.72;;;17.86;44.26
46291;BME280;32023;44.444;26.006;2023-04-21T07:38:01;99981.06;;;18.00;44.13
46291;BME280;32023;44.444;26.006;2023-04-21T07:40:27;99987.38;;;18.14;43.34
46291;BME280;32023;44.444;26.006;2023-04-21T07:42:56;99978.13;;;18.27;41.99
46291;BME280;32023;44.444;26.006;2023-04-21T07:45:23;99980.50;;;18.43;41.04
46291;BME280;32023;44.444;26.006;2023-04-21T07:47:52;99994.84;;;18.58;40.87
46291;BME280;32023;44.444;26.006;2023-04-21T07:50:22;99997.72;;;18.75;39.89
46291;BME280;32023;44.444;26.006;2023-04-21T07:52:48;99995.13;;;18.88;39.56
46291;BME280;32023;44.444;26.006;2023-04-21T07:55:15;100003.88;;;19.03;39.45
46291;BME280;32023;44.444;26.006;2023-04-21T07:57:41;99995.66;;;19.15;40.03
46291;BME280;32023;44.444;26.006;2023-04-21T08:00:15;100005.03;;;19.19;40.39
46291;BME280;32023;44.444;26.006;2023-04-21T08:02:51;100006.03;;;19.23;40.10
46291;BME280;32023;44.444;26.006;2023-04-21T08:05:20;100002.91;;;19.16;39.16
46291;BME280;32023;44.444;26.006;2023-04-21T08:07:46;99999.94;;;19.13;39.59
46291;BME280;32023;44.444;26.006;2023-04-21T08:10:15;100002.44;;;19.14;40.23
46291;BME280;32023;44.444;26.006;2023-04-21T08:12:43;100000.25;;;19.11;40.20
46291;BME280;32023;44.444;26.006;2023-04-21T08:15:15;99999.09;;;19.04;39.44
46291;BME280;32023;44.444;26.006;2023-04-21T08:17:44;100001.72;;;19.00;39.66
46291;BME280;32023;44.444;26.006;2023-04-21T08:20:13;100002.72;;;18.96;39.44
46291;BME280;32023;44.444;26.006;2023-04-21T08:22:42;100000.25;;;19.03;39.04
46291;BME280;32023;44.444;26.006;2023-04-21T08:25:09;99964.63;;;18.91;38.50
46291;BME280;32023;44.444;26.006;2023-04-21T08:27:39;100001.25;;;19.15;38.22
46291;BME280;32023;44.444;26.006;2023-04-21T08:30:06;100001.88;;;18.95;39.34
46291;BME280;32023;44.444;26.006;2023-04-21T08:32:32;100008.69;;;18.72;41.09
46291;BME280;32023;44.444;26.006;2023-04-21T08:35:01;100017.22;;;17.92;46.00
46291;BME280;32023;44.444;26.006;2023-04-21T08:37:31;100011.09;;;17.59;47.01
46291;BME280;32023;44.444;26.006;2023-04-21T08:40:03;100004.47;;;17.55;46.90
46291;BME280;32023;44.444;26.006;2023-04-21T08:42:29;100003.44;;;17.51;47.53
46291;BME280;32023;44.444;26.006;2023-04-21T08:44:56;100007.78;;;17.57;47.35
46291;BME280;32023;44.444;26.006;2023-04-21T08:47:25;100014.38;;;17.61;46.84
46291;BME280;32023;44.444;26.006;2023-04-21T08:49:52;100014.88;;;17.63;45.79
46291;BME280;32023;44.444;26.006;2023-04-21T08:52:19;100018.16;;;17.65;45.03
46291;BME280;32023;44.444;26.006;2023-04-21T08:54:47;100020.69;;;17.75;44.44
46291;BME280;32023;44.444;26.006;2023-04-21T08:57:17;100021.47;;;17.89;44.16
46291;BME280;32023;44.444;26.006;2023-04-21T08:59:44;100026.66;;;18.04;43.58
46291;BME280;32023;44.444;26.006;2023-04-21T09:02:18;100018.75;;;18.20;43.95
46291;BME280;32023;44.444;26.006;2023-04-21T09:04:48;100027.09;;;18.51;44.44
46291;BME280;32023;44.444;26.006;2023-04-21T09:07:38;100021.22;;;18.83;43.84
46291;BME280;32023;44.444;26.006;2023-04-21T09:10:05;100025.25;;;19.16;43.38
46291;BME280;32023;44.444;26.006;2023-04-21T09:12:38;100013.63;;;19.40;42.72
46291;BME280;32023;44.444;26.006;2023-04-21T09:15:09;100019.22;;;19.40;41.63
46291;BME280;32023;44.444;26.006;2023-04-21T09:17:44;100010.38;;;19.64;41.58
46291;BME280;32023;44.444;26.006;2023-04-21T09:20:19;100013.66;;;19.92;40.69
46291;BME280;32023;44.444;26.006;2023-04-21T09:23:06;100005.53;;;20.33;39.83
46291;BME280;32023;44.444;26.006;2023-04-21T09:25:33;100014.91;;;20.46;39.68
46291;BME280;32023;44.444;26.006;2023-04-21T09:28:00;100010.41;;;20.62;39.43
46291;BME280;32023;44.444;26.006;2023-04-21T09:30:32;100018.75;;;20.71;38.57
46291;BME280;32023;44.444;26.006;2023-04-21T09:33:06;100009.63;;;20.82;37.61
46291;BME280;32023;44.444;26.006;2023-04-21T09:35:54;100021.50;;;20.79;37.85
46291;BME280;32023;44.444;26.006;2023-04-21T09:38:47;100023.00;;;20.77;38.23
46291;BME280;32023;44.444;26.006;2023-04-21T09:41:17;100016.94;;;20.66;37.68
46291;BME280;32023;44.444;26.006;2023-04-21T09:43:49;99947.53;;;20.04;36.85
46291;BME280;32023;44.444;26.006;2023-04-21T09:46:36;100021.31;;;20.20;37.58
46291;BME280;32023;44.444;26.006;2023-04-21T09:49:13;100009.34;;;20.11;38.29
46291;BME280;32023;44.444;26.006;2023-04-21T09:52:02;100013.66;;;19.92;39.06
46291;BME280;32023;44.444;26.006;2023-04-21T09:54:56;100021.88;;;19.80;39.65
46291;BME280;32023;44.444;26.006;2023-04-21T09:58:11;100012.84;;;19.74;39.97
46291;BME280;32023;44.444;26.006;2023-04-21T10:01:26;100023.03;;;19.70;40.36
46291;BME280;32023;44.444;26.006;2023-04-21T10:04:04;100014.00;;;19.56;40.25
46291;BME280;32023;44.444;26.006;2023-04-21T10:06:43;100013.13;;;19.38;39.86
46291;BME280;32023;44.444;26.006;2023-04-21T10:09:17;100012.63;;;19.28;39.73
46291;BME280;32023;44.444;26.006;2023-04-21T10:12:22;100005.03;;;19.02;39.54
46291;BME280;32023;44.444;26.006;2023-04-21T10:15:32;100004.50;;;19.00;39.10
46291;BME280;32023;44.444;26.006;2023-04-21T10:18:22;100002.03;;;18.90;38.18
46291;BME280;32023;44.444;26.006;2023-04-21T10:21:03;100006.09;;;18.75;37.86
46291;BME280;32023;44.444;26.006;2023-04-21T10:23:41;100009.59;;;18.59;37.81
46291;BME280;32023;44.444;26.006;2023-04-21T10:29:16;100012.97;;;18.47;38.33
46291;BME280;32023;44.444;26.006;2023-04-21T10:32:06;100018.53;;;18.47;38.00
46291;BME280;32023;44.444;26.006;2023-04-21T10:41:34;100005.75;;;18.77;36.43
46291;BME280;32023;44.444;26.006;2023-04-21T10:44:40;100009.09;;;18.96;35.89
46291;BME280;32023;44.444;26.006;2023-04-21T10:47:43;100015.03;;;19.03;35.52
46291;BME280;32023;44.444;26.006;2023-04-21T10:50:28;100020.00;;;19.23;35.06
46291;BME280;32023;44.444;26.006;2023-04-21T10:53:40;100021.69;;;19.42;34.22
46291;BME280;32023;44.444;26.006;2023-04-21T10:56:01;100017.78;;;19.60;33.85
46291;BME280;32023;44.444;26.006;2023-04-21T10:58:39;100018.59;;;19.86;33.57
46291;BME280;32023;44.444;26.006;2023-04-21T11:01:20;100006.69;;;20.32;32.74
46291;BME280;32023;44.444;26.006;2023-04-21T11:03:46;100024.03;;;21.01;32.15
46291;BME280;32023;44.444;26.006;2023-04-21T11:09:08;100012.47;;;21.41;30.31
46291;BME280;32023;44.444;26.006;2023-04-21T11:11:39;100020.03;;;21.61;29.69
46291;BME280;32023;44.444;26.006;2023-04-21T11:14:08;100015.13;;;21.58;29.17
46291;BME280;32023;44.444;26.006;2023-04-21T11:16:35;100023.44;;;21.46;28.88
46291;BME280;32023;44.444;26.006;2023-04-21T11:19:32;100017.78;;;21.34;29.25
46291;BME280;32023;44.444;26.006;2023-04-21T11:22:05;100014.53;;;21.23;29.46
46291;BME280;32023;44.444;26.006;2023-04-21T11:24:42;100013.94;;;21.09;28.99
46291;BME280;32023;44.444;26.006;2023-04-21T11:27:13;100014.47;;;21.02;29.11
46291;BME280;32023;44.444;26.006;2023-04-21T11:29:51;100006.88;;;21.11;29.43
46291;BME280;32023;44.444;26.006;2023-04-21T11:32:19;100001.72;;;21.22;29.41
46291;BME280;32023;44.444;26.006;2023-04-21T11:35:01;100006.50;;;21.22;28.81
46291;BME280;32023;44.444;26.006;2023-04-21T11:37:32;100006.28;;;20.97;27.93
46291;BME280;32023;44.444;26.006;2023-04-21T11:40:05;99993.81;;;20.86;28.08
46291;BME280;32023;44.444;26.006;2023-04-21T11:42:32;99997.31;;;20.75;28.59
46291;BME280;32023;44.444;26.006;2023-04-21T11:45:01;99999.97;;;20.71;29.20
46291;BME280;32023;44.444;26.006;2023-04-21T11:47:46;99990.97;;;20.65;29.34
46291;BME280;32023;44.444;26.006;2023-04-21T11:50:30;99991.66;;;20.54;28.87
46291;BME280;32023;44.444;26.006;2023-04-21T11:53:09;99993.44;;;20.58;29.41
46291;BME280;32023;44.444;26.006;2023-04-21T11:55:48;99985.31;;;20.74;29.62
46291;BME280;32023;44.444;26.006;2023-04-21T11:58:28;99988.50;;;20.93;29.69
46291;BME280;32023;44.444;26.006;2023-04-21T12:01:25;99995.81;;;21.15;29.30
46291;BME280;32023;44.444;26.006;2023-04-21T12:07:28;99991.06;;;21.98;28.79
46291;BME280;32023;44.444;26.006;2023-04-21T12:10:10;99982.94;;;22.18;27.90
46291;BME280;32023;44.444;26.006;2023-04-21T12:12:43;99987.25;;;22.15;27.59
46291;BME280;32023;44.444;26.006;2023-04-21T12:15:20;99978.50;;;22.17;27.58
46291;BME280;32023;44.444;26.006;2023-04-21T12:17:53;99961.91;;;22.12;27.08
46291;BME280;32023;44.444;26.006;2023-04-21T12:20:51;99971.38;;;21.86;27.63
46291;BME280;32023;44.444;26.006;2023-04-21T12:23:39;99972.28;;;22.11;28.27
46291;BME280;32023;44.444;26.006;2023-04-21T12:29:41;99959.28;;;22.51;27.81
46291;BME280;32023;44.444;26.006;2023-04-21T12:32:10;99967.34;;;22.53;27.86
46291;BME280;32023;44.444;26.006;2023-04-21T12:34:37;99955.19;;;22.49;27.92
46291;BME280;32023;44.444;26.006;2023-04-21T12:40:15;99959.16;;;22.48;28.01
46291;BME280;32023;44.444;26.006;2023-04-21T12:42:48;99953.78;;;22.43;27.60
46291;BME280;32023;44.444;26.006;2023-04-21T12:45:17;99953.50;;;22.36;27.84
46291;BME280;32023;44.444;26.006;2023-04-21T12:47:53;99952.13;;;22.30;27.67
46291;BME280;32023;44.444;26.006;2023-04-21T12:50:27;99947.16;;;22.15;27.36
46291;BME280;32023;44.444;26.006;2023-04-21T12:52:54;99942.97;;;22.08;27.52
46291;BME280;32023;44.444;26.006;2023-04-21T12:55:33;99949.00;;;21.98;27.51
46291;BME280;32023;44.444;26.006;2023-04-21T12:58:03;99945.59;;;21.93;27.55
46291;BME280;32023;44.444;26.006;2023-04-21T13:00:31;99952.41;;;21.83;27.81
46291;BME280;32023;44.444;26.006;2023-04-21T13:03:03;99950.03;;;21.73;27.87
46291;BME280;32023;44.444;26.006;2023-04-21T13:05:36;99942.00;;;21.51;27.53
46291;BME280;32023;44.444;26.006;2023-04-21T13:08:10;99948.44;;;21.51;27.72
46291;BME280;32023;44.444;26.006;2023-04-21T13:10:42;99946.78;;;21.71;28.43
46291;BME280;32023;44.444;26.006;2023-04-21T13:13:14;99943.03;;;22.00;28.64
46291;BME280;32023;44.444;26.006;2023-04-21T13:15:51;99945.66;;;22.17;28.27
46291;BME280;32023;44.444;26.006;2023-04-21T13:18:21;99942.50;;;22.19;28.25
46291;BME280;32023;44.444;26.006;2023-04-21T13:24:15;99926.88;;;22.30;27.52
46291;BME280;32023;44.444;26.006;2023-04-21T13:27:11;99935.28;;;22.30;27.71
46291;BME280;32023;44.444;26.006;2023-04-21T13:29:37;99938.09;;;22.30;27.53
46291;BME280;32023;44.444;26.006;2023-04-21T13:32:15;99931.81;;;22.00;26.85
46291;BME280;32023;44.444;26.006;2023-04-21T13:37:38;99946.97;;;22.20;27.16
46291;BME280;32023;44.444;26.006;2023-04-21T13:40:10;99939.47;;;22.12;27.05
46291;BME280;32023;44.444;26.006;2023-04-21T13:42:44;99949.34;;;21.97;27.78
46291;BME280;32023;44.444;26.006;2023-04-21T13:45:22;99948.25;;;21.89;27.73
46291;BME280;32023;44.444;26.006;2023-04-21T13:51:12;99938.88;;;21.32;28.00
46291;BME280;32023;44.444;26.006;2023-04-21T13:53:38;99943.94;;;21.09;28.28